sensor_id;sensor_type;location;lat;lon;timestamp;P1;durP1;ratioP1;P2;durP2;ratioP2
20794;SDS011;28087;-33.874;151.240;2024-02-23T00:02:02;11.15;;;7.10;;
20794;SDS011;28087;-33.874;151.240;2024-02-23T00:05:09;13.00;;;6.57;;
20794;SDS011;28087;-33.874;151.240;2024-02-23T00:08:17;10.10;;;5.65;;
20794;SDS011;28087;-33.874;151.240;2024-02-23T00:11:24;7.85;;;5.32;;
20794;SDS011;28087;-33.874;151.240;2024-02-23T00:14:37;13.40;;;5.57;;
20794;SDS011;28087;-33.874;151.240;2024-02-23T00:17:44;8.23;;;5.30;;
20794;SDS011;28087;-33.874;151.240;2024-02-23T00:20:51;10.45;;;6.13;;
20794;SDS011;28087;-33.874;151.240;2024-02-23T00:23:57;9.65;;;5.20;;
20794;SDS011;28087;-33.874;151.240;2024-02-23T00:27:03;7.38;;;5.18;;
20794;SDS011;28087;-33.874;151.240;2024-02-23T00:30:11;7.57;;;5.15;;
20794;SDS011;28087;-33.874;151.240;2024-02-23T00:33:21;10.23;;;4.75;;
20794;SDS011;28087;-33.874;151.240;2024-02-23T00:36:31;8.85;;;5.18;;
20794;SDS011;28087;-33.874;151.240;2024-02-23T00:39:39;8.43;;;4.45;;
20794;SDS011;28087;-33.874;151.240;2024-02-23T00:42:47;8.73;;;4.82;;
20794;SDS011;28087;-33.874;151.240;2024-02-23T00:46:08;8.70;;;4.53;;
20794;SDS011;28087;-33.874;151.240;2024-02-23T00:49:15;7.90;;;4.90;;
20794;SDS011;28087;-33.874;151.240;2024-02-23T00:52:23;8.75;;;5.25;;
20794;SDS011;28087;-33.874;151.240;2024-02-23T00:55:30;7.50;;;4.78;;
20794;SDS011;28087;-33.874;151.240;2024-02-23T00:58:38;8.52;;;4.53;;
20794;SDS011;28087;-33.874;151.240;2024-02-23T01:01:51;10.00;;;4.75;;
20794;SDS011;28087;-33.874;151.240;2024-02-23T01:05:00;7.47;;;4.35;;
20794;SDS011;28087;-33.874;151.240;2024-02-23T01:08:08;8.32;;;3.90;;
20794;SDS011;28087;-33.874;151.240;2024-02-23T01:11:15;9.35;;;4.75;;
20794;SDS011;28087;-33.874;151.240;2024-02-23T01:14:23;6.93;;;4.00;;
20794;SDS011;28087;-33.874;151.240;2024-02-23T01:17:34;7.20;;;3.83;;
20794;SDS011;28087;-33.874;151.240;2024-02-23T01:20:42;6.43;;;3.60;;
20794;SDS011;28087;-33.874;151.240;2024-02-23T01:23:53;9.57;;;4.10;;
20794;SDS011;28087;-33.874;151.240;2024-02-23T01:27:04;9.43;;;4.30;;
20794;SDS011;28087;-33.874;151.240;2024-02-23T01:30:11;14.15;;;5.03;;
20794;SDS011;28087;-33.874;151.240;2024-02-23T01:33:19;10.13;;;4.75;;
20794;SDS011;28087;-33.874;151.240;2024-02-23T01:36:26;7.90;;;4.10;;
20794;SDS011;28087;-33.874;151.240;2024-02-23T01:39:33;7.50;;;4.20;;
20794;SDS011;28087;-33.874;151.240;2024-02-23T01:42:41;8.23;;;4.20;;
20794;SDS011;28087;-33.874;151.240;2024-02-23T01:45:49;9.50;;;4.68;;
20794;SDS011;28087;-33.874;151.240;2024-02-23T01:48:57;9.93;;;4.50;;
20794;SDS011;28087;-33.874;151.240;2024-02-23T01:52:04;8.75;;;4.13;;
20794;SDS011;28087;-33.874;151.240;2024-02-23T01:55:12;7.03;;;3.80;;
20794;SDS011;28087;-33.874;151.240;2024-02-23T02:01:43;9.07;;;4.20;;
20794;SDS011;28087;-33.874;151.240;2024-02-23T02:04:45;7.93;;;3.92;;
20794;SDS011;28087;-33.874;151.240;2024-02-23T02:07:53;7.82;;;3.38;;
20794;SDS011;28087;-33.874;151.240;2024-02-23T02:10:58;7.35;;;3.72;;
20794;SDS011;28087;-33.874;151.240;2024-02-23T02:14:07;8.63;;;3.60;;
20794;SDS011;28087;-33.874;151.240;2024-02-23T02:17:14;9.23;;;3.80;;
20794;SDS011;28087;-33.874;151.240;2024-02-23T02:20:27;8.32;;;3.15;;
20794;SDS011;28087;-33.874;151.240;2024-02-23T02:23:33;10.40;;;2.90;;
20794;SDS011;28087;-33.874;151.240;2024-02-23T02:26:40;7.20;;;2.50;;
20794;SDS011;28087;-33.874;151.240;2024-02-23T02:29:54;6.03;;;2.60;;
20794;SDS011;28087;-33.874;151.240;2024-02-23T02:33:04;8.27;;;2.38;;
20794;SDS011;28087;-33.874;151.240;2024-02-23T02:36:12;3.95;;;2.20;;
20794;SDS011;28087;-33.874;151.240;2024-02-23T02:39:19;5.15;;;2.05;;
20794;SDS011;28087;-33.874;151.240;2024-02-23T02:42:33;8.65;;;2.80;;
20794;SDS011;28087;-33.874;151.240;2024-02-23T02:45:42;3.47;;;1.60;;
20794;SDS011;28087;-33.874;151.240;2024-02-23T02:48:50;6.55;;;2.20;;
20794;SDS011;28087;-33.874;151.240;2024-02-23T02:52:02;5.93;;;4.05;;
20794;SDS011;28087;-33.874;151.240;2024-02-23T02:55:13;5.72;;;3.10;;
20794;SDS011;28087;-33.874;151.240;2024-02-23T02:58:20;7.60;;;2.75;;
20794;SDS011;28087;-33.874;151.240;2024-02-23T03:01:28;6.95;;;2.97;;
20794;SDS011;28087;-33.874;151.240;2024-02-23T03:04:35;7.93;;;4.15;;
20794;SDS011;28087;-33.874;151.240;2024-02-23T03:07:44;5.93;;;2.10;;
20794;SDS011;28087;-33.874;151.240;2024-02-23T03:10:53;6.90;;;2.00;;
20794;SDS011;28087;-33.874;151.240;2024-02-23T03:14:04;5.45;;;2.30;;
20794;SDS011;28087;-33.874;151.240;2024-02-23T03:17:14;4.32;;;1.80;;
20794;SDS011;28087;-33.874;151.240;2024-02-23T03:20:29;3.95;;;1.90;;
20794;SDS011;28087;-33.874;151.240;2024-02-23T03:23:40;8.10;;;2.60;;
20794;SDS011;28087;-33.874;151.240;2024-02-23T03:26:48;4.50;;;2.63;;
20794;SDS011;28087;-33.874;151.240;2024-02-23T03:29:56;7.00;;;2.30;;
20794;SDS011;28087;-33.874;151.240;2024-02-23T03:33:04;6.95;;;2.38;;
20794;SDS011;28087;-33.874;151.240;2024-02-23T03:36:10;5.80;;;2.20;;
20794;SDS011;28087;-33.874;151.240;2024-02-23T03:39:20;5.05;;;1.80;;
20794;SDS011;28087;-33.874;151.240;2024-02-23T03:42:29;6.60;;;1.90;;
20794;SDS011;28087;-33.874;151.240;2024-02-23T03:45:36;3.60;;;1.70;;
20794;SDS011;28087;-33.874;151.240;2024-02-23T03:48:44;5.55;;;1.58;;
20794;SDS011;28087;-33.874;151.240;2024-02-23T03:51:52;3.65;;;1.45;;
20794;SDS011;28087;-33.874;151.240;2024-02-23T03:55:03;4.72;;;1.50;;
20794;SDS011;28087;-33.874;151.240;2024-02-23T03:58:10;3.90;;;1.35;;
20794;SDS011;28087;-33.874;151.240;2024-02-23T04:01:17;5.05;;;1.83;;
20794;SDS011;28087;-33.874;151.240;2024-02-23T04:04:24;3.28;;;1.58;;
20794;SDS011;28087;-33.874;151.240;2024-02-23T04:07:33;4.00;;;1.73;;
20794;SDS011;28087;-33.874;151.240;2024-02-23T04:10:45;3.33;;;1.60;;
20794;SDS011;28087;-33.874;151.240;2024-02-23T04:13:53;4.47;;;1.80;;
20794;SDS011;28087;-33.874;151.240;2024-02-23T04:17:00;3.30;;;1.50;;
20794;SDS011;28087;-33.874;151.240;2024-02-23T04:20:09;3.35;;;1.55;;
20794;SDS011;28087;-33.874;151.240;2024-02-23T04:23:15;3.25;;;1.40;;
20794;SDS011;28087;-33.874;151.240;2024-02-23T04:26:18;2.70;;;1.40;;
20794;SDS011;28087;-33.874;151.240;2024-02-23T04:29:28;4.05;;;1.50;;
20794;SDS011;28087;-33.874;151.240;2024-02-23T04:32:36;3.65;;;1.35;;
20794;SDS011;28087;-33.874;151.240;2024-02-23T04:35:44;3.63;;;1.33;;
20794;SDS011;28087;-33.874;151.240;2024-02-23T04:38:52;1.98;;;1.10;;
20794;SDS011;28087;-33.874;151.240;2024-02-23T04:42:05;2.47;;;1.13;;
20794;SDS011;28087;-33.874;151.240;2024-02-23T04:45:13;4.07;;;1.20;;
20794;SDS011;28087;-33.874;151.240;2024-02-23T04:48:19;3.55;;;1.75;;
20794;SDS011;28087;-33.874;151.240;2024-02-23T04:51:24;3.72;;;2.10;;
20794;SDS011;28087;-33.874;151.240;2024-02-23T04:54:25;3.63;;;1.90;;
20794;SDS011;28087;-33.874;151.240;2024-02-23T04:57:36;4.20;;;1.95;;
20794;SDS011;28087;-33.874;151.240;2024-02-23T05:00:41;3.58;;;1.70;;
20794;SDS011;28087;-33.874;151.240;2024-02-23T05:03:48;5.05;;;1.40;;
20794;SDS011;28087;-33.874;151.240;2024-02-23T05:06:55;3.90;;;1.48;;
20794;SDS011;28087;-33.874;151.240;2024-02-23T05:10:01;4.97;;;1.48;;
20794;SDS011;28087;-33.874;151.240;2024-02-23T05:13:09;3.35;;;1.30;;
20794;SDS011;28087;-33.874;151.240;2024-02-23T05:16:15;2.65;;;1.30;;
20794;SDS011;28087;-33.874;151.240;2024-02-23T05:19:21;3.28;;;1.73;;
20794;SDS011;28087;-33.874;151.240;2024-02-23T05:22:27;4.45;;;1.48;;
20794;SDS011;28087;-33.874;151.240;2024-02-23T05:25:34;4.03;;;1.70;;
20794;SDS011;28087;-33.874;151.240;2024-02-23T05:28:42;3.75;;;1.50;;
20794;SDS011;28087;-33.874;151.240;2024-02-23T05:31:48;4.10;;;1.40;;
20794;SDS011;28087;-33.874;151.240;2024-02-23T05:34:54;9.65;;;2.20;;
20794;SDS011;28087;-33.874;151.240;2024-02-23T05:38:00;15.38;;;2.58;;
20794;SDS011;28087;-33.874;151.240;2024-02-23T05:41:06;9.80;;;2.63;;
20794;SDS011;28087;-33.874;151.240;2024-02-23T05:44:19;10.68;;;2.53;;
20794;SDS011;28087;-33.874;151.240;2024-02-23T05:47:27;9.73;;;2.70;;
20794;SDS011;28087;-33.874;151.240;2024-02-23T05:50:35;10.25;;;2.30;;
20794;SDS011;28087;-33.874;151.240;2024-02-23T05:53:41;13.32;;;3.40;;
20794;SDS011;28087;-33.874;151.240;2024-02-23T05:56:47;15.68;;;3.50;;
20794;SDS011;28087;-33.874;151.240;2024-02-23T05:59:55;14.52;;;3.63;;
20794;SDS011;28087;-33.874;151.240;2024-02-23T06:03:03;22.55;;;5.03;;
20794;SDS011;28087;-33.874;151.240;2024-02-23T06:06:10;20.02;;;4.60;;
20794;SDS011;28087;-33.874;151.240;2024-02-23T06:09:18;18.42;;;3.90;;
20794;SDS011;28087;-33.874;151.240;2024-02-23T06:12:28;19.25;;;4.55;;
20794;SDS011;28087;-33.874;151.240;2024-02-23T06:15:42;21.95;;;4.75;;
20794;SDS011;28087;-33.874;151.240;2024-02-23T06:18:48;26.98;;;4.85;;
20794;SDS011;28087;-33.874;151.240;2024-02-23T06:21:56;20.75;;;4.68;;
20794;SDS011;28087;-33.874;151.240;2024-02-23T06:25:03;26.63;;;5.15;;
20794;SDS011;28087;-33.874;151.240;2024-02-23T06:28:06;22.27;;;5.38;;
20794;SDS011;28087;-33.874;151.240;2024-02-23T06:31:08;21.05;;;5.13;;
20794;SDS011;28087;-33.874;151.240;2024-02-23T06:34:14;18.45;;;4.10;;
20794;SDS011;28087;-33.874;151.240;2024-02-23T06:37:21;22.42;;;4.88;;
20794;SDS011;28087;-33.874;151.240;2024-02-23T06:40:27;20.27;;;4.75;;
20794;SDS011;28087;-33.874;151.240;2024-02-23T06:43:40;25.92;;;5.07;;
20794;SDS011;28087;-33.874;151.240;2024-02-23T06:46:49;24.52;;;4.75;;
20794;SDS011;28087;-33.874;151.240;2024-02-23T06:49:56;19.67;;;4.70;;
20794;SDS011;28087;-33.874;151.240;2024-02-23T06:53:03;23.38;;;4.78;;
20794;SDS011;28087;-33.874;151.240;2024-02-23T06:56:09;26.35;;;5.28;;
20794;SDS011;28087;-33.874;151.240;2024-02-23T06:59:16;20.98;;;4.50;;
20794;SDS011;28087;-33.874;151.240;2024-02-23T07:02:24;24.17;;;4.97;;
20794;SDS011;28087;-33.874;151.240;2024-02-23T07:05:31;23.40;;;4.88;;
20794;SDS011;28087;-33.874;151.240;2024-02-23T07:08:42;23.75;;;4.78;;
20794;SDS011;28087;-33.874;151.240;2024-02-23T07:11:50;20.88;;;4.60;;
20794;SDS011;28087;-33.874;151.240;2024-02-23T07:14:58;19.02;;;4.20;;
20794;SDS011;28087;-33.874;151.240;2024-02-23T07:18:07;17.20;;;4.43;;
20794;SDS011;28087;-33.874;151.240;2024-02-23T07:21:13;22.45;;;4.32;;
20794;SDS011;28087;-33.874;151.240;2024-02-23T07:24:21;16.58;;;4.20;;
20794;SDS011;28087;-33.874;151.240;2024-02-23T07:27:28;21.65;;;4.07;;
20794;SDS011;28087;-33.874;151.240;2024-02-23T07:30:35;14.88;;;3.75;;
20794;SDS011;28087;-33.874;151.240;2024-02-23T07:33:44;16.45;;;3.65;;
20794;SDS011;28087;-33.874;151.240;2024-02-23T07:36:51;15.52;;;4.20;;
20794;SDS011;28087;-33.874;151.240;2024-02-23T07:39:59;15.48;;;3.60;;
20794;SDS011;28087;-33.874;151.240;2024-02-23T07:43:09;10.65;;;3.47;;
20794;SDS011;28087;-33.874;151.240;2024-02-23T07:46:17;12.57;;;3.38;;
20794;SDS011;28087;-33.874;151.240;2024-02-23T07:49:25;10.15;;;3.22;;
20794;SDS011;28087;-33.874;151.240;2024-02-23T07:52:32;14.45;;;3.42;;
20794;SDS011;28087;-33.874;151.240;2024-02-23T07:55:39;15.73;;;3.42;;
20794;SDS011;28087;-33.874;151.240;2024-02-23T07:58:49;10.43;;;3.10;;
20794;SDS011;28087;-33.874;151.240;2024-02-23T08:01:56;11.30;;;2.88;;
20794;SDS011;28087;-33.874;151.240;2024-02-23T08:05:07;11.20;;;2.90;;
20794;SDS011;28087;-33.874;151.240;2024-02-23T08:08:13;14.98;;;3.53;;
20794;SDS011;28087;-33.874;151.240;2024-02-23T08:11:25;9.13;;;2.88;;
20794;SDS011;28087;-33.874;151.240;2024-02-23T08:14:31;20.75;;;4.35;;
20794;SDS011;28087;-33.874;151.240;2024-02-23T08:18:06;34.60;;;4.97;;
20794;SDS011;28087;-33.874;151.240;2024-02-23T08:21:14;29.10;;;5.03;;
20794;SDS011;28087;-33.874;151.240;2024-02-23T08:24:21;31.42;;;5.22;;
20794;SDS011;28087;-33.874;151.240;2024-02-23T08:27:28;25.00;;;4.63;;
20794;SDS011;28087;-33.874;151.240;2024-02-23T08:30:34;25.27;;;5.30;;
20794;SDS011;28087;-33.874;151.240;2024-02-23T08:33:43;26.98;;;5.35;;
20794;SDS011;28087;-33.874;151.240;2024-02-23T08:36:51;38.92;;;6.82;;
20794;SDS011;28087;-33.874;151.240;2024-02-23T08:39:57;40.15;;;6.22;;
20794;SDS011;28087;-33.874;151.240;2024-02-23T08:43:04;36.00;;;6.50;;
20794;SDS011;28087;-33.874;151.240;2024-02-23T08:46:10;30.48;;;6.05;;
20794;SDS011;28087;-33.874;151.240;2024-02-23T08:49:16;19.85;;;4.65;;
20794;SDS011;28087;-33.874;151.240;2024-02-23T08:52:25;28.70;;;5.55;;
20794;SDS011;28087;-33.874;151.240;2024-02-23T08:55:31;23.13;;;4.75;;
20794;SDS011;28087;-33.874;151.240;2024-02-23T08:58:37;30.60;;;5.32;;
20794;SDS011;28087;-33.874;151.240;2024-02-23T09:01:43;27.25;;;5.07;;
20794;SDS011;28087;-33.874;151.240;2024-02-23T09:04:50;22.70;;;4.97;;
20794;SDS011;28087;-33.874;151.240;2024-02-23T09:07:59;26.25;;;5.07;;
20794;SDS011;28087;-33.874;151.240;2024-02-23T09:11:04;26.80;;;5.05;;
20794;SDS011;28087;-33.874;151.240;2024-02-23T09:14:11;16.83;;;4.75;;
20794;SDS011;28087;-33.874;151.240;2024-02-23T09:17:18;20.92;;;5.18;;
20794;SDS011;28087;-33.874;151.240;2024-02-23T09:20:29;20.33;;;4.85;;
20794;SDS011;28087;-33.874;151.240;2024-02-23T09:23:38;24.70;;;5.13;;
20794;SDS011;28087;-33.874;151.240;2024-02-23T09:26:46;22.92;;;4.65;;
20794;SDS011;28087;-33.874;151.240;2024-02-23T09:29:53;22.85;;;4.85;;
20794;SDS011;28087;-33.874;151.240;2024-02-23T09:33:01;19.83;;;4.30;;
20794;SDS011;28087;-33.874;151.240;2024-02-23T09:36:11;19.45;;;4.38;;
20794;SDS011;28087;-33.874;151.240;2024-02-23T09:39:20;19.02;;;4.50;;
20794;SDS011;28087;-33.874;151.240;2024-02-23T09:42:19;20.92;;;4.70;;
20794;SDS011;28087;-33.874;151.240;2024-02-23T09:45:23;24.58;;;4.53;;
20794;SDS011;28087;-33.874;151.240;2024-02-23T09:48:31;23.25;;;4.50;;
20794;SDS011;28087;-33.874;151.240;2024-02-23T09:51:37;17.25;;;4.00;;
20794;SDS011;28087;-33.874;151.240;2024-02-23T09:54:45;17.77;;;4.60;;
20794;SDS011;28087;-33.874;151.240;2024-02-23T09:57:51;17.52;;;4.40;;
20794;SDS011;28087;-33.874;151.240;2024-02-23T10:00:58;16.55;;;4.20;;
20794;SDS011;28087;-33.874;151.240;2024-02-23T10:04:06;14.10;;;3.92;;
20794;SDS011;28087;-33.874;151.240;2024-02-23T10:07:15;14.70;;;4.15;;
20794;SDS011;28087;-33.874;151.240;2024-02-23T10:10:26;21.83;;;4.10;;
20794;SDS011;28087;-33.874;151.240;2024-02-23T10:13:37;22.77;;;4.75;;
20794;SDS011;28087;-33.874;151.240;2024-02-23T10:16:45;21.98;;;4.82;;
20794;SDS011;28087;-33.874;151.240;2024-02-23T10:19:51;21.83;;;4.63;;
20794;SDS011;28087;-33.874;151.240;2024-02-23T10:22:59;22.58;;;4.40;;
20794;SDS011;28087;-33.874;151.240;2024-02-23T10:26:07;28.70;;;4.88;;
20794;SDS011;28087;-33.874;151.240;2024-02-23T10:29:17;22.00;;;4.68;;
20794;SDS011;28087;-33.874;151.240;2024-02-23T10:32:25;23.85;;;4.43;;
20794;SDS011;28087;-33.874;151.240;2024-02-23T10:35:31;24.52;;;4.13;;
20794;SDS011;28087;-33.874;151.240;2024-02-23T10:38:39;17.70;;;3.35;;
20794;SDS011;28087;-33.874;151.240;2024-02-23T10:41:51;21.55;;;3.90;;
20794;SDS011;28087;-33.874;151.240;2024-02-23T10:45:05;25.20;;;5.07;;
20794;SDS011;28087;-33.874;151.240;2024-02-23T10:48:11;27.73;;;5.22;;
20794;SDS011;28087;-33.874;151.240;2024-02-23T10:51:19;29.20;;;5.88;;
20794;SDS011;28087;-33.874;151.240;2024-02-23T10:54:27;24.70;;;5.05;;
20794;SDS011;28087;-33.874;151.240;2024-02-23T10:57:37;31.70;;;6.78;;
20794;SDS011;28087;-33.874;151.240;2024-02-23T11:00:46;25.95;;;5.55;;
20794;SDS011;28087;-33.874;151.240;2024-02-23T11:03:53;26.73;;;5.22;;
20794;SDS011;28087;-33.874;151.240;2024-02-23T11:06:59;25.23;;;5.05;;
20794;SDS011;28087;-33.874;151.240;2024-02-23T11:10:06;29.23;;;5.60;;
20794;SDS011;28087;-33.874;151.240;2024-02-23T11:13:13;28.52;;;6.50;;
20794;SDS011;28087;-33.874;151.240;2024-02-23T11:16:24;35.00;;;6.28;;
20794;SDS011;28087;-33.874;151.240;2024-02-23T11:19:33;32.88;;;6.25;;
20794;SDS011;28087;-33.874;151.240;2024-02-23T11:22:40;34.78;;;7.32;;
20794;SDS011;28087;-33.874;151.240;2024-02-23T11:25:59;31.65;;;6.68;;
20794;SDS011;28087;-33.874;151.240;2024-02-23T11:29:11;36.60;;;7.47;;
20794;SDS011;28087;-33.874;151.240;2024-02-23T11:32:18;42.53;;;7.43;;
20794;SDS011;28087;-33.874;151.240;2024-02-23T11:35:25;41.15;;;7.55;;
20794;SDS011;28087;-33.874;151.240;2024-02-23T11:38:31;40.20;;;7.63;;
20794;SDS011;28087;-33.874;151.240;2024-02-23T11:41:38;42.13;;;7.35;;
20794;SDS011;28087;-33.874;151.240;2024-02-23T11:44:45;42.40;;;7.57;;
20794;SDS011;28087;-33.874;151.240;2024-02-23T11:47:54;34.83;;;6.90;;
20794;SDS011;28087;-33.874;151.240;2024-02-23T11:51:01;39.72;;;7.05;;
20794;SDS011;28087;-33.874;151.240;2024-02-23T11:54:14;35.42;;;7.47;;
20794;SDS011;28087;-33.874;151.240;2024-02-23T11:57:22;40.78;;;8.93;;
20794;SDS011;28087;-33.874;151.240;2024-02-23T12:00:36;45.58;;;8.55;;
20794;SDS011;28087;-33.874;151.240;2024-02-23T12:03:43;40.90;;;8.48;;
20794;SDS011;28087;-33.874;151.240;2024-02-23T12:06:51;43.08;;;7.90;;
20794;SDS011;28087;-33.874;151.240;2024-02-23T12:09:59;46.00;;;8.00;;
20794;SDS011;28087;-33.874;151.240;2024-02-23T12:13:07;44.58;;;7.90;;
20794;SDS011;28087;-33.874;151.240;2024-02-23T12:16:15;35.92;;;7.10;;
20794;SDS011;28087;-33.874;151.240;2024-02-23T12:19:23;37.20;;;7.28;;
20794;SDS011;28087;-33.874;151.240;2024-02-23T12:22:30;32.45;;;7.15;;
20794;SDS011;28087;-33.874;151.240;2024-02-23T12:25:56;34.83;;;6.78;;
20794;SDS011;28087;-33.874;151.240;2024-02-23T12:29:03;36.47;;;7.38;;
20794;SDS011;28087;-33.874;151.240;2024-02-23T12:32:12;37.90;;;7.25;;
20794;SDS011;28087;-33.874;151.240;2024-02-23T12:35:19;34.65;;;6.75;;
20794;SDS011;28087;-33.874;151.240;2024-02-23T12:38:26;37.08;;;6.88;;
20794;SDS011;28087;-33.874;151.240;2024-02-23T12:41:39;35.63;;;7.40;;
20794;SDS011;28087;-33.874;151.240;2024-02-23T12:44:47;36.22;;;7.22;;
20794;SDS011;28087;-33.874;151.240;2024-02-23T12:47:55;29.17;;;6.40;;
20794;SDS011;28087;-33.874;151.240;2024-02-23T12:51:02;35.67;;;6.22;;
20794;SDS011;28087;-33.874;151.240;2024-02-23T12:54:10;32.47;;;6.95;;
20794;SDS011;28087;-33.874;151.240;2024-02-23T12:57:16;33.17;;;6.72;;
20794;SDS011;28087;-33.874;151.240;2024-02-23T13:00:22;30.80;;;6.20;;
20794;SDS011;28087;-33.874;151.240;2024-02-23T13:03:30;32.28;;;6.88;;
20794;SDS011;28087;-33.874;151.240;2024-02-23T13:06:38;34.63;;;6.50;;
20794;SDS011;28087;-33.874;151.240;2024-02-23T13:09:39;34.17;;;6.93;;
20794;SDS011;28087;-33.874;151.240;2024-02-23T13:12:39;42.15;;;6.80;;
20794;SDS011;28087;-33.874;151.240;2024-02-23T13:15:38;35.40;;;6.50;;
20794;SDS011;28087;-33.874;151.240;2024-02-23T13:18:46;33.90;;;7.13;;
20794;SDS011;28087;-33.874;151.240;2024-02-23T13:21:54;36.35;;;6.93;;
20794;SDS011;28087;-33.874;151.240;2024-02-23T13:25:01;37.17;;;7.43;;
20794;SDS011;28087;-33.874;151.240;2024-02-23T13:28:07;36.30;;;7.13;;
20794;SDS011;28087;-33.874;151.240;2024-02-23T13:31:13;35.83;;;7.20;;
20794;SDS011;28087;-33.874;151.240;2024-02-23T13:34:23;35.08;;;6.95;;
20794;SDS011;28087;-33.874;151.240;2024-02-23T13:37:29;31.65;;;6.55;;
20794;SDS011;28087;-33.874;151.240;2024-02-23T13:40:36;38.75;;;7.75;;
20794;SDS011;28087;-33.874;151.240;2024-02-23T13:43:42;36.85;;;7.88;;
20794;SDS011;28087;-33.874;151.240;2024-02-23T13:46:50;34.58;;;6.70;;
20794;SDS011;28087;-33.874;151.240;2024-02-23T13:49:59;32.25;;;6.47;;
20794;SDS011;28087;-33.874;151.240;2024-02-23T13:53:07;38.00;;;6.43;;
20794;SDS011;28087;-33.874;151.240;2024-02-23T13:56:13;32.08;;;6.40;;
20794;SDS011;28087;-33.874;151.240;2024-02-23T13:59:20;29.08;;;5.57;;
20794;SDS011;28087;-33.874;151.240;2024-02-23T14:02:27;32.03;;;6.18;;
20794;SDS011;28087;-33.874;151.240;2024-02-23T14:05:37;33.50;;;6.25;;
20794;SDS011;28087;-33.874;151.240;2024-02-23T14:08:43;35.70;;;6.63;;
20794;SDS011;28087;-33.874;151.240;2024-02-23T14:11:49;32.42;;;6.38;;
20794;SDS011;28087;-33.874;151.240;2024-02-23T14:14:57;36.50;;;6.53;;
20794;SDS011;28087;-33.874;151.240;2024-02-23T14:18:04;30.33;;;6.45;;
20794;SDS011;28087;-33.874;151.240;2024-02-23T14:21:17;29.23;;;6.13;;
20794;SDS011;28087;-33.874;151.240;2024-02-23T14:24:23;32.10;;;6.25;;
20794;SDS011;28087;-33.874;151.240;2024-02-23T14:27:30;26.08;;;5.32;;
20794;SDS011;28087;-33.874;151.240;2024-02-23T14:30:37;35.38;;;6.45;;
20794;SDS011;28087;-33.874;151.240;2024-02-23T14:33:43;31.77;;;6.53;;
20794;SDS011;28087;-33.874;151.240;2024-02-23T14:36:53;31.00;;;5.78;;
20794;SDS011;28087;-33.874;151.240;2024-02-23T14:39:58;37.53;;;7.13;;
20794;SDS011;28087;-33.874;151.240;2024-02-23T14:43:04;33.05;;;6.65;;
20794;SDS011;28087;-33.874;151.240;2024-02-23T14:46:10;37.08;;;6.32;;
20794;SDS011;28087;-33.874;151.240;2024-02-23T14:49:16;27.38;;;6.25;;
20794;SDS011;28087;-33.874;151.240;2024-02-23T14:52:25;38.97;;;7.30;;
20794;SDS011;28087;-33.874;151.240;2024-02-23T14:55:32;28.85;;;6.53;;
20794;SDS011;28087;-33.874;151.240;2024-02-23T14:58:40;31.60;;;6.40;;
20794;SDS011;28087;-33.874;151.240;2024-02-23T15:01:47;29.50;;;5.88;;
20794;SDS011;28087;-33.874;151.240;2024-02-23T15:04:54;23.13;;;5.68;;
20794;SDS011;28087;-33.874;151.240;2024-02-23T15:08:05;29.17;;;6.13;;
20794;SDS011;28087;-33.874;151.240;2024-02-23T15:11:13;33.38;;;5.97;;
20794;SDS011;28087;-33.874;151.240;2024-02-23T15:14:20;31.75;;;6.38;;
20794;SDS011;28087;-33.874;151.240;2024-02-23T15:17:27;29.35;;;6.22;;
20794;SDS011;28087;-33.874;151.240;2024-02-23T15:20:35;31.13;;;6.03;;
20794;SDS011;28087;-33.874;151.240;2024-02-23T15:23:46;30.08;;;5.93;;
20794;SDS011;28087;-33.874;151.240;2024-02-23T15:26:52;34.90;;;6.50;;
20794;SDS011;28087;-33.874;151.240;2024-02-23T15:29:59;27.70;;;5.32;;
20794;SDS011;28087;-33.874;151.240;2024-02-23T15:33:06;23.77;;;5.13;;
20794;SDS011;28087;-33.874;151.240;2024-02-23T15:36:13;25.70;;;5.55;;
20794;SDS011;28087;-33.874;151.240;2024-02-23T15:39:22;29.98;;;5.60;;
20794;SDS011;28087;-33.874;151.240;2024-02-23T15:42:27;28.05;;;5.50;;
20794;SDS011;28087;-33.874;151.240;2024-02-23T15:45:34;25.88;;;5.85;;
20794;SDS011;28087;-33.874;151.240;2024-02-23T15:48:42;19.35;;;4.00;;
20794;SDS011;28087;-33.874;151.240;2024-02-23T15:52:09;18.35;;;4.20;;
20794;SDS011;28087;-33.874;151.240;2024-02-23T15:55:19;17.98;;;4.55;;
20794;SDS011;28087;-33.874;151.240;2024-02-23T15:58:24;18.10;;;3.65;;
20794;SDS011;28087;-33.874;151.240;2024-02-23T16:01:31;16.90;;;3.30;;
20794;SDS011;28087;-33.874;151.240;2024-02-23T16:04:39;18.92;;;3.70;;
20794;SDS011;28087;-33.874;151.240;2024-02-23T16:07:46;21.15;;;3.90;;
20794;SDS011;28087;-33.874;151.240;2024-02-23T16:10:55;20.20;;;3.80;;
20794;SDS011;28087;-33.874;151.240;2024-02-23T16:14:06;21.70;;;4.38;;
20794;SDS011;28087;-33.874;151.240;2024-02-23T16:17:13;18.98;;;3.70;;
20794;SDS011;28087;-33.874;151.240;2024-02-23T16:20:19;17.67;;;3.80;;
20794;SDS011;28087;-33.874;151.240;2024-02-23T16:23:26;21.20;;;3.40;;
20794;SDS011;28087;-33.874;151.240;2024-02-23T16:26:35;17.77;;;3.90;;
20794;SDS011;28087;-33.874;151.240;2024-02-23T16:29:40;17.55;;;3.35;;
20794;SDS011;28087;-33.874;151.240;2024-02-23T16:32:46;16.73;;;3.70;;
20794;SDS011;28087;-33.874;151.240;2024-02-23T16:35:52;17.42;;;3.60;;
20794;SDS011;28087;-33.874;151.240;2024-02-23T16:38:58;20.02;;;4.05;;
20794;SDS011;28087;-33.874;151.240;2024-02-23T16:42:07;18.98;;;3.58;;
20794;SDS011;28087;-33.874;151.240;2024-02-23T16:45:13;19.65;;;4.07;;
20794;SDS011;28087;-33.874;151.240;2024-02-23T16:48:20;16.60;;;3.60;;
20794;SDS011;28087;-33.874;151.240;2024-02-23T16:51:28;21.13;;;4.15;;
20794;SDS011;28087;-33.874;151.240;2024-02-23T16:54:33;15.43;;;3.22;;
20794;SDS011;28087;-33.874;151.240;2024-02-23T16:57:43;14.60;;;3.35;;
20794;SDS011;28087;-33.874;151.240;2024-02-23T17:00:50;14.35;;;3.42;;
20794;SDS011;28087;-33.874;151.240;2024-02-23T17:03:57;17.00;;;3.50;;
20794;SDS011;28087;-33.874;151.240;2024-02-23T17:07:04;12.82;;;3.45;;
20794;SDS011;28087;-33.874;151.240;2024-02-23T17:10:10;16.10;;;3.70;;
20794;SDS011;28087;-33.874;151.240;2024-02-23T17:13:19;16.58;;;3.78;;
20794;SDS011;28087;-33.874;151.240;2024-02-23T17:16:25;19.13;;;4.10;;
20794;SDS011;28087;-33.874;151.240;2024-02-23T17:19:31;17.85;;;4.28;;
20794;SDS011;28087;-33.874;151.240;2024-02-23T17:22:37;17.25;;;3.97;;
20794;SDS011;28087;-33.874;151.240;2024-02-23T17:25:44;19.17;;;4.15;;
20794;SDS011;28087;-33.874;151.240;2024-02-23T17:28:53;17.50;;;4.03;;
20794;SDS011;28087;-33.874;151.240;2024-02-23T17:31:59;17.95;;;4.00;;
20794;SDS011;28087;-33.874;151.240;2024-02-23T17:35:07;22.45;;;4.75;;
20794;SDS011;28087;-33.874;151.240;2024-02-23T17:38:14;20.10;;;4.00;;
20794;SDS011;28087;-33.874;151.240;2024-02-23T17:41:22;20.95;;;4.65;;
20794;SDS011;28087;-33.874;151.240;2024-02-23T17:44:30;19.85;;;4.80;;
20794;SDS011;28087;-33.874;151.240;2024-02-23T17:47:36;20.30;;;4.45;;
20794;SDS011;28087;-33.874;151.240;2024-02-23T17:50:43;18.30;;;4.32;;
20794;SDS011;28087;-33.874;151.240;2024-02-23T17:53:49;18.73;;;4.45;;
20794;SDS011;28087;-33.874;151.240;2024-02-23T17:56:55;20.63;;;4.78;;